createdAt,value
2023-01-19T00:00:56.588Z,12.40
2023-01-19T00:03:23.484Z,11.07
2023-01-19T00:05:51.846Z,12.70
2023-01-19T00:08:18.915Z,13.10
2023-01-19T00:10:48.572Z,12.93
2023-01-19T00:13:16.050Z,12.93
2023-01-19T00:15:43.944Z,12.90
2023-01-19T00:18:11.322Z,13.43
2023-01-19T00:20:40.021Z,12.50
2023-01-19T00:23:08.515Z,11.90
2023-01-19T00:25:42.875Z,13.13
2023-01-19T00:28:12.079Z,12.13
2023-01-19T00:30:39.578Z,12.77
2023-01-19T00:33:14.043Z,13.13
2023-01-19T00:35:42.566Z,15.13
2023-01-19T00:38:11.427Z,12.43
2023-01-19T00:40:38.268Z,13.77
2023-01-19T00:43:05.081Z,14.27
2023-01-19T00:45:33.250Z,14.20
2023-01-19T00:47:59.939Z,14.00
2023-01-19T00:50:28.248Z,13.63
2023-01-19T00:52:55.912Z,13.87
2023-01-19T00:55:23.217Z,14.23
2023-01-19T00:57:49.926Z,13.87
2023-01-19T01:00:19.619Z,14.60
2023-01-19T01:02:47.773Z,13.90
2023-01-19T01:05:14.572Z,13.97
2023-01-19T01:07:42.752Z,14.93
2023-01-19T01:10:14.852Z,13.70
2023-01-19T01:12:57.385Z,12.37
2023-01-19T01:15:26.248Z,12.60
2023-01-19T01:17:53.499Z,13.60
2023-01-19T01:20:27.708Z,14.93
2023-01-19T01:22:55.892Z,15.03
2023-01-19T01:25:24.259Z,14.70
2023-01-19T01:27:51.431Z,13.07
2023-01-19T01:30:18.859Z,13.97
2023-01-19T01:32:46.032Z,15.20
2023-01-19T01:35:16.913Z,14.80
2023-01-19T01:37:43.883Z,15.50
2023-01-19T01:40:16.158Z,14.40
2023-01-19T01:42:43.592Z,15.10
2023-01-19T01:45:35.843Z,13.97
2023-01-19T01:48:24.483Z,14.30
2023-01-19T01:51:14.939Z,16.03
2023-01-19T01:53:43.094Z,13.60
2023-01-19T01:56:14.827Z,14.23
2023-01-19T01:58:41.998Z,14.80
2023-01-19T02:01:29.142Z,15.13
2023-01-19T02:03:57.323Z,13.73
2023-01-19T02:06:24.858Z,15.53
2023-01-19T02:09:29.736Z,15.50
2023-01-19T02:12:15.777Z,13.20
2023-01-19T02:14:42.411Z,13.00
2023-01-19T02:17:09.274Z,12.77
2023-01-19T02:19:42.889Z,14.27
2023-01-19T02:22:40.880Z,14.70
2023-01-19T02:25:08.130Z,13.43
2023-01-19T02:27:36.922Z,15.20
2023-01-19T02:30:04.279Z,12.33
2023-01-19T02:32:31.263Z,13.10
2023-01-19T02:34:58.248Z,13.77
2023-01-19T02:37:28.244Z,13.23
2023-01-19T02:39:59.067Z,15.03
2023-01-19T02:42:34.736Z,14.40
2023-01-19T02:45:06.645Z,13.07
2023-01-19T02:47:42.954Z,12.53
2023-01-19T02:50:35.344Z,14.67
2023-01-19T02:53:44.265Z,13.07
2023-01-19T02:56:40.513Z,13.80
2023-01-19T02:59:25.317Z,12.80
2023-01-19T03:02:04.778Z,13.03
2023-01-19T03:04:49.578Z,12.97
2023-01-19T03:07:58.242Z,13.60
2023-01-19T03:10:53.112Z,12.73
2023-01-19T03:13:35.040Z,13.33
2023-01-19T03:16:13.320Z,14.10
2023-01-19T03:18:44.493Z,12.83
2023-01-19T03:21:13.874Z,13.10
2023-01-19T03:23:44.044Z,13.43
2023-01-19T03:26:14.651Z,12.83
2023-01-19T03:28:44.374Z,13.60
2023-01-19T03:31:24.246Z,12.07
2023-01-19T03:33:55.248Z,13.10
2023-01-19T03:36:44.412Z,13.43
2023-01-19T03:39:14.474Z,12.63
2023-01-19T03:41:42.781Z,14.33
2023-01-19T03:44:11.625Z,11.13
2023-01-19T03:46:38.891Z,13.70
2023-01-19T03:49:06.066Z,12.30
2023-01-19T03:51:36.745Z,12.90
2023-01-19T03:54:05.500Z,11.23
2023-01-19T03:56:32.258Z,13.10
2023-01-19T03:58:59.161Z,12.60
2023-01-19T04:01:26.078Z,13.10
2023-01-19T04:03:53.139Z,10.93
2023-01-19T04:06:21.485Z,11.97
2023-01-19T04:08:49.578Z,12.97
2023-01-19T04:11:16.804Z,13.13
2023-01-19T04:13:44.974Z,13.40
2023-01-19T04:16:12.354Z,14.20
2023-01-19T04:18:40.663Z,11.53
2023-01-19T04:21:08.263Z,13.00
2023-01-19T04:23:35.372Z,13.70
2023-01-19T04:26:04.695Z,16.13
2023-01-19T04:28:32.769Z,13.80
2023-01-19T04:30:59.530Z,12.97
2023-01-19T04:33:27.935Z,14.27
2023-01-19T04:35:55.981Z,13.93
2023-01-19T04:38:24.678Z,14.30
2023-01-19T04:40:53.629Z,13.87
2023-01-19T04:43:21.481Z,12.97
2023-01-19T04:45:49.028Z,14.37
2023-01-19T04:48:18.568Z,13.50
2023-01-19T04:50:45.912Z,14.30
2023-01-19T04:53:13.738Z,16.03
2023-01-19T04:55:40.890Z,11.90
2023-01-19T04:58:07.916Z,14.73
2023-01-19T05:00:34.829Z,12.80
2023-01-19T05:03:02.291Z,12.73
2023-01-19T05:05:29.582Z,11.43
2023-01-19T05:07:56.391Z,11.30
2023-01-19T05:10:23.754Z,13.03
2023-01-19T05:12:51.261Z,12.30
2023-01-19T05:15:18.155Z,11.57
2023-01-19T05:17:45.043Z,11.40
2023-01-19T05:20:15.729Z,12.43
2023-01-19T05:22:43.238Z,11.87
2023-01-19T05:25:10.261Z,12.27
2023-01-19T05:27:38.652Z,12.73
2023-01-19T05:30:06.526Z,11.17
2023-01-19T05:32:33.401Z,11.70
2023-01-19T05:35:00.131Z,12.00
2023-01-19T05:37:26.917Z,11.13
2023-01-19T05:39:54.001Z,13.00
2023-01-19T05:42:20.922Z,13.47
2023-01-19T05:44:47.950Z,11.67
2023-01-19T05:47:14.824Z,12.83
2023-01-19T05:49:41.631Z,11.90
2023-01-19T05:52:08.461Z,11.17
2023-01-19T05:54:35.229Z,11.17
2023-01-19T05:57:03.027Z,13.17
2023-01-19T05:59:29.757Z,10.10
2023-01-19T06:01:57.383Z,12.57
2023-01-19T06:04:27.246Z,11.17
2023-01-19T06:06:53.979Z,11.13
2023-01-19T06:09:20.623Z,10.50
2023-01-19T06:11:47.827Z,10.20
2023-01-19T06:14:14.548Z,10.40
2023-01-19T06:16:41.291Z,9.90
2023-01-19T06:19:08.185Z,10.60
2023-01-19T06:21:34.865Z,10.47
2023-01-19T06:24:01.754Z,11.80
2023-01-19T06:26:28.454Z,9.80
2023-01-19T06:28:55.188Z,10.77
2023-01-19T06:31:22.394Z,10.03
2023-01-19T06:33:49.829Z,10.50
2023-01-19T06:36:16.488Z,10.33
2023-01-19T06:38:43.144Z,10.33
2023-01-19T06:41:09.856Z,9.40
2023-01-19T06:43:36.799Z,9.00
2023-01-19T06:46:05.094Z,10.70
2023-01-19T06:48:31.778Z,8.13
2023-01-19T06:50:59.924Z,9.30
2023-01-19T06:53:30.156Z,9.83
2023-01-19T06:56:01.753Z,8.57
2023-01-19T06:58:29.615Z,8.90
2023-01-19T07:01:00.761Z,9.30
2023-01-19T07:03:28.440Z,8.30
2023-01-19T07:05:57.415Z,10.27
2023-01-19T07:08:24.178Z,8.70
2023-01-19T07:11:26.101Z,9.03
2023-01-19T07:13:39.887Z,9.57
2023-01-19T07:16:13.986Z,9.10
2023-01-19T07:18:41.014Z,8.90
2023-01-19T07:21:08.155Z,8.60
2023-01-19T07:23:35.412Z,9.30
2023-01-19T07:26:02.324Z,8.77
2023-01-19T07:28:30.994Z,9.53
2023-01-19T07:30:58.216Z,9.00
2023-01-19T07:33:26.091Z,8.87
2023-01-19T07:35:53.641Z,9.40
2023-01-19T07:38:21.076Z,9.50
2023-01-19T07:40:47.744Z,10.40
2023-01-19T07:43:15.147Z,9.40
2023-01-19T07:45:43.131Z,7.73
2023-01-19T07:48:09.888Z,11.37
2023-01-19T07:50:37.117Z,8.97
2023-01-19T07:53:08.408Z,9.93
2023-01-19T07:55:35.563Z,10.33
2023-01-19T07:58:06.443Z,9.97
2023-01-19T08:00:35.600Z,9.80
2023-01-19T08:03:03.595Z,10.20
2023-01-19T08:05:32.800Z,10.50
2023-01-19T08:08:00.497Z,11.50
2023-01-19T08:10:28.094Z,10.47
2023-01-19T08:12:56.385Z,10.03
2023-01-19T08:15:42.050Z,10.53
2023-01-19T08:18:29.091Z,12.77
2023-01-19T08:21:16.507Z,11.53
2023-01-19T08:24:03.975Z,12.17
2023-01-19T08:26:57.603Z,12.00
2023-01-19T08:29:24.346Z,12.47
2023-01-19T08:31:51.550Z,13.13
2023-01-19T08:34:18.389Z,15.00
2023-01-19T08:36:45.118Z,16.43
2023-01-19T08:39:14.866Z,17.07
2023-01-19T08:41:41.549Z,16.07
2023-01-19T08:44:08.264Z,15.20
2023-01-19T08:46:35.215Z,16.17
2023-01-19T08:49:01.953Z,15.80
2023-01-19T08:51:28.669Z,17.63
2023-01-19T08:53:55.808Z,19.10
2023-01-19T08:56:22.540Z,20.40
2023-01-19T08:58:59.498Z,19.27
2023-01-19T09:01:34.280Z,16.53
2023-01-19T09:04:01.579Z,18.13
2023-01-19T09:06:28.425Z,18.57
2023-01-19T09:08:55.132Z,16.83
2023-01-19T09:11:22.252Z,18.03
2023-01-19T09:13:48.924Z,18.00
2023-01-19T09:16:15.848Z,18.40
2023-01-19T09:18:42.790Z,19.03
2023-01-19T09:21:10.051Z,20.00
2023-01-19T09:23:36.786Z,19.80
2023-01-19T09:26:05.565Z,19.90
2023-01-19T09:28:33.103Z,19.37
2023-01-19T09:31:04.032Z,20.43
2023-01-19T09:33:31.124Z,19.93
2023-01-19T09:35:57.878Z,21.57
2023-01-19T09:38:25.831Z,19.67
2023-01-19T09:40:58.753Z,21.60
2023-01-19T09:43:41.354Z,20.07
2023-01-19T09:46:15.932Z,21.67
2023-01-19T09:48:46.238Z,19.77
2023-01-19T09:51:25.242Z,20.60
2023-01-19T09:54:14.460Z,22.00
2023-01-19T09:56:42.462Z,22.50
2023-01-19T09:59:28.653Z,20.20
2023-01-19T10:02:20.789Z,20.37
2023-01-19T10:05:01.325Z,21.03
2023-01-19T10:08:06.080Z,20.13
2023-01-19T10:10:35.099Z,19.47
2023-01-19T10:13:21.672Z,20.00
2023-01-19T10:16:09.743Z,21.47
2023-01-19T10:18:48.067Z,19.50
2023-01-19T10:21:39.789Z,20.13
2023-01-19T10:24:17.988Z,19.30
2023-01-19T10:26:52.551Z,21.27
2023-01-19T10:29:19.703Z,22.00
2023-01-19T10:31:47.161Z,21.30
2023-01-19T10:34:23.088Z,21.80
2023-01-19T10:36:58.288Z,20.43
2023-01-19T10:39:25.220Z,22.27
2023-01-19T10:41:53.464Z,20.40
2023-01-19T10:44:36.132Z,20.07
2023-01-19T10:47:06.217Z,21.13
2023-01-19T10:49:38.973Z,19.70
2023-01-19T10:52:08.192Z,19.63
2023-01-19T10:54:37.660Z,20.20
2023-01-19T10:57:08.028Z,21.87
2023-01-19T10:59:49.617Z,21.90
2023-01-19T11:02:29.261Z,20.53
2023-01-19T11:05:26.504Z,19.90
2023-01-19T11:07:53.207Z,19.23
2023-01-19T11:10:25.995Z,18.87
2023-01-19T11:13:01.393Z,20.00
2023-01-19T11:15:33.141Z,18.10
2023-01-19T11:18:01.043Z,17.70
2023-01-19T11:20:50.657Z,20.23
2023-01-19T11:23:27.170Z,18.60
2023-01-19T11:25:57.086Z,17.70
2023-01-19T11:28:40.044Z,17.93
2023-01-19T11:31:15.934Z,17.90
2023-01-19T11:33:42.633Z,18.50
2023-01-19T11:36:21.307Z,18.67
2023-01-19T11:38:53.284Z,18.90
2023-01-19T11:41:22.166Z,19.77
2023-01-19T11:43:55.320Z,18.50
2023-01-19T11:46:26.969Z,17.87
2023-01-19T11:49:01.854Z,18.53
2023-01-19T11:51:35.578Z,20.10
2023-01-19T11:54:06.355Z,20.10
2023-01-19T11:56:33.307Z,19.87
2023-01-19T11:59:02.225Z,21.10
2023-01-19T12:01:35.641Z,18.63
2023-01-19T12:04:39.451Z,19.30
2023-01-19T12:07:10.721Z,19.60
2023-01-19T12:09:51.755Z,16.27
2023-01-19T12:12:35.226Z,18.33
2023-01-19T12:15:22.850Z,18.07
2023-01-19T12:17:52.646Z,17.10
2023-01-19T12:20:26.841Z,18.70
2023-01-19T12:23:11.911Z,19.17
2023-01-19T12:26:01.734Z,21.90
2023-01-19T12:28:32.653Z,19.57
2023-01-19T12:31:01.013Z,18.77
2023-01-19T12:33:40.276Z,17.83
2023-01-19T12:36:17.853Z,19.93
2023-01-19T12:38:53.792Z,20.50
2023-01-19T12:41:31.150Z,20.77
2023-01-19T12:44:14.924Z,20.27
2023-01-19T12:46:49.474Z,20.87
2023-01-19T12:49:28.353Z,19.60
2023-01-19T12:52:20.197Z,21.10
2023-01-19T12:55:07.766Z,20.10
2023-01-19T12:57:51.678Z,21.43
2023-01-19T13:00:24.743Z,18.43
2023-01-19T13:02:57.201Z,19.10
2023-01-19T13:05:39.275Z,19.13
2023-01-19T13:08:06.418Z,18.67
2023-01-19T13:10:53.202Z,22.20
2023-01-19T13:13:25.264Z,20.87
2023-01-19T13:15:55.906Z,21.00
2023-01-19T13:18:39.069Z,18.17
2023-01-19T13:21:08.153Z,18.70
2023-01-19T13:23:56.947Z,21.17
2023-01-19T13:26:27.308Z,17.90
2023-01-19T13:29:06.916Z,19.60
2023-01-19T13:31:39.524Z,20.33
2023-01-19T13:34:13.599Z,20.00
2023-01-19T13:36:45.583Z,19.20
2023-01-19T13:39:20.015Z,17.40
2023-01-19T13:41:49.070Z,20.30
2023-01-19T13:44:42.156Z,18.80
2023-01-19T13:47:18.178Z,18.40
2023-01-19T13:49:46.824Z,18.07
2023-01-19T13:52:21.779Z,17.63
2023-01-19T13:54:53.264Z,17.00
2023-01-19T13:57:29.077Z,17.67
2023-01-19T14:00:15.344Z,17.17
2023-01-19T14:02:55.738Z,17.63
2023-01-19T14:05:26.261Z,16.30
2023-01-19T14:08:08.538Z,17.63
2023-01-19T14:10:37.130Z,18.60
2023-01-19T14:13:25.501Z,16.23
2023-01-19T14:15:59.147Z,16.70
2023-01-19T14:18:36.655Z,17.90
2023-01-19T14:21:03.663Z,16.60
2023-01-19T14:23:42.231Z,16.00
2023-01-19T14:26:41.897Z,15.50
2023-01-19T14:29:33.021Z,15.90
2023-01-19T14:32:19.566Z,15.13
2023-01-19T14:35:04.266Z,16.03
2023-01-19T14:37:37.126Z,17.00
2023-01-19T14:40:14.910Z,19.53
2023-01-19T14:43:06.370Z,19.27
2023-01-19T14:45:41.363Z,18.90
2023-01-19T14:48:20.742Z,22.70
2023-01-19T14:51:02.384Z,16.50
2023-01-19T14:53:38.389Z,16.63
2023-01-19T14:56:06.878Z,14.00
2023-01-19T14:58:35.535Z,14.23
2023-01-19T15:01:03.713Z,15.40
2023-01-19T15:03:44.233Z,15.50
2023-01-19T15:06:18.395Z,15.30
2023-01-19T15:08:46.299Z,14.77
2023-01-19T15:11:21.323Z,16.40
2023-01-19T15:13:49.224Z,15.53
2023-01-19T15:16:16.534Z,17.30
2023-01-19T15:18:43.471Z,15.47
2023-01-19T15:21:23.771Z,16.73
2023-01-19T15:23:50.898Z,14.60
2023-01-19T15:26:20.999Z,15.57
2023-01-19T15:28:49.568Z,17.03
2023-01-19T15:31:24.865Z,16.70
2023-01-19T15:33:52.228Z,15.73
2023-01-19T15:36:21.518Z,15.60
2023-01-19T15:38:51.477Z,14.80
2023-01-19T15:41:30.220Z,15.47
2023-01-19T15:43:57.483Z,16.33
2023-01-19T15:46:25.804Z,16.97
2023-01-19T15:48:54.258Z,17.03
2023-01-19T15:51:26.106Z,14.17
2023-01-19T15:53:54.155Z,16.90
2023-01-19T15:56:29.940Z,16.00
2023-01-19T15:58:58.372Z,14.40
2023-01-19T16:01:31.543Z,16.67
2023-01-19T16:04:00.880Z,17.37
2023-01-19T16:06:28.751Z,15.70
2023-01-19T16:08:59.839Z,15.90
2023-01-19T16:11:29.035Z,15.17
2023-01-19T16:13:56.156Z,16.73
2023-01-19T16:16:25.396Z,16.63
2023-01-19T16:18:52.523Z,15.10
2023-01-19T16:21:19.700Z,14.80
2023-01-19T16:23:46.719Z,15.50
2023-01-19T16:26:30.310Z,16.43
2023-01-19T16:29:02.952Z,15.47
2023-01-19T16:31:30.399Z,17.07
2023-01-19T16:34:03.387Z,15.90
2023-01-19T16:36:32.875Z,15.23
2023-01-19T16:39:06.837Z,16.50
2023-01-19T16:41:34.993Z,17.07
2023-01-19T16:44:02.468Z,16.40
2023-01-19T16:46:33.952Z,15.90
2023-01-19T16:49:06.976Z,15.87
2023-01-19T16:51:39.886Z,15.77
2023-01-19T16:54:07.191Z,15.37
2023-01-19T16:56:34.076Z,16.13
2023-01-19T16:59:01.017Z,16.13
2023-01-19T17:01:29.096Z,16.83
2023-01-19T17:03:56.540Z,17.57
2023-01-19T17:06:24.754Z,16.70
2023-01-19T17:08:53.929Z,16.97
2023-01-19T17:11:23.880Z,18.10
2023-01-19T17:14:02.056Z,18.70
2023-01-19T17:16:31.359Z,16.73
2023-01-19T17:19:01.622Z,16.77
2023-01-19T17:21:28.949Z,18.27
2023-01-19T17:23:57.145Z,18.10
2023-01-19T17:26:26.061Z,18.17
2023-01-19T17:28:57.429Z,17.77
2023-01-19T17:31:24.478Z,18.17
2023-01-19T17:33:51.536Z,17.87
2023-01-19T17:36:22.498Z,20.73
2023-01-19T17:38:50.275Z,17.23
2023-01-19T17:41:28.816Z,18.00
2023-01-19T17:43:56.300Z,18.63
2023-01-19T17:46:26.466Z,18.07
2023-01-19T17:49:04.027Z,18.30
2023-01-19T17:51:31.713Z,17.87
2023-01-19T17:54:00.202Z,17.90
2023-01-19T17:56:30.311Z,19.77
2023-01-19T17:58:58.097Z,18.60
2023-01-19T18:01:28.617Z,16.27
2023-01-19T18:03:56.568Z,21.13
2023-01-19T18:06:23.738Z,17.93
2023-01-19T18:08:51.671Z,19.33
2023-01-19T18:11:20.283Z,19.53
2023-01-19T18:13:49.076Z,20.60
2023-01-19T18:16:20.436Z,18.57
2023-01-19T18:18:49.593Z,19.20
2023-01-19T18:21:17.361Z,18.93
2023-01-19T18:23:45.488Z,18.87
2023-01-19T18:26:20.271Z,17.93
2023-01-19T18:28:48.386Z,19.93
2023-01-19T18:31:17.643Z,20.07
2023-01-19T18:33:45.400Z,19.07
2023-01-19T18:36:14.004Z,20.13
2023-01-19T18:38:41.364Z,19.13
2023-01-19T18:41:11.579Z,18.60
2023-01-19T18:43:39.267Z,19.50
2023-01-19T18:46:06.591Z,19.33
2023-01-19T18:48:33.764Z,19.87
2023-01-19T18:51:03.380Z,21.80
2023-01-19T18:53:31.544Z,19.80
2023-01-19T18:55:59.781Z,19.90
2023-01-19T18:58:29.877Z,20.50
2023-01-19T19:00:57.085Z,19.43
2023-01-19T19:03:24.266Z,19.33
2023-01-19T19:05:51.070Z,22.03
2023-01-19T19:08:18.027Z,19.70
2023-01-19T19:10:45.090Z,22.93
2023-01-19T19:13:13.873Z,23.77
2023-01-19T19:15:40.582Z,21.53
2023-01-19T19:18:08.926Z,22.03
2023-01-19T19:20:38.409Z,19.30
2023-01-19T19:23:05.493Z,22.20
2023-01-19T19:25:32.983Z,20.00
2023-01-19T19:27:59.731Z,21.03
2023-01-19T19:30:26.520Z,19.77
2023-01-19T19:32:56.050Z,19.80
2023-01-19T19:35:26.094Z,18.17
2023-01-19T19:37:57.231Z,19.10
2023-01-19T19:40:27.938Z,19.03
2023-01-19T19:42:56.995Z,19.67
2023-01-19T19:45:25.278Z,18.67
2023-01-19T19:47:52.573Z,19.00
2023-01-19T19:50:19.260Z,21.33
2023-01-19T19:52:45.986Z,18.87
2023-01-19T19:55:13.331Z,20.40
2023-01-19T19:57:40.049Z,18.13
2023-01-19T20:00:07.368Z,18.70
2023-01-19T20:02:34.189Z,19.17
2023-01-19T20:05:01.691Z,18.53
2023-01-19T20:07:28.426Z,21.27
2023-01-19T20:09:55.242Z,19.73
2023-01-19T20:12:22.454Z,18.90
2023-01-19T20:14:49.169Z,19.70
2023-01-19T20:17:16.038Z,21.43
2023-01-19T20:19:45.554Z,20.10
2023-01-19T20:22:12.233Z,19.40
2023-01-19T20:24:39.468Z,19.10
2023-01-19T20:27:06.220Z,19.53
2023-01-19T20:29:32.883Z,19.20
2023-01-19T20:31:59.936Z,21.07
2023-01-19T20:34:32.101Z,20.17
2023-01-19T20:37:01.181Z,20.60
2023-01-19T20:39:29.953Z,20.07
2023-01-19T20:41:56.994Z,17.83
2023-01-19T20:44:25.427Z,17.40
2023-01-19T20:46:53.044Z,16.57
2023-01-19T20:49:19.861Z,19.07
2023-01-19T20:51:46.953Z,17.90
2023-01-19T20:54:16.089Z,21.03
2023-01-19T20:56:42.869Z,19.17
2023-01-19T20:59:10.423Z,18.80
2023-01-19T21:01:37.360Z,19.53
2023-01-19T21:04:04.454Z,19.10
2023-01-19T21:06:31.182Z,18.83
2023-01-19T21:08:58.334Z,20.83
2023-01-19T21:11:25.581Z,18.50
2023-01-19T21:13:55.528Z,20.40
2023-01-19T21:16:27.901Z,20.63
2023-01-19T21:18:55.141Z,19.40
2023-01-19T21:21:30.326Z,20.50
2023-01-19T21:23:59.134Z,19.57
2023-01-19T21:26:26.012Z,19.23
2023-01-19T21:28:53.210Z,21.70
2023-01-19T21:31:22.503Z,20.60
2023-01-19T21:33:53.766Z,20.23
2023-01-19T21:36:22.340Z,18.53
2023-01-19T21:38:51.296Z,18.93
2023-01-19T21:41:18.526Z,18.23
2023-01-19T21:43:46.023Z,20.87
2023-01-19T21:46:18.209Z,19.30
2023-01-19T21:48:45.958Z,21.27
2023-01-19T21:51:13.604Z,18.20
2023-01-19T21:53:41.025Z,20.70
2023-01-19T21:56:10.868Z,19.60
2023-01-19T21:58:37.966Z,21.90
2023-01-19T22:01:10.587Z,21.33
2023-01-19T22:03:37.334Z,20.23
2023-01-19T22:06:06.016Z,22.47
2023-01-19T22:08:33.252Z,21.50
2023-01-19T22:11:07.462Z,21.70
2023-01-19T22:13:35.576Z,21.70
2023-01-19T22:16:04.006Z,20.50
2023-01-19T22:18:30.934Z,21.53
2023-01-19T22:21:11.150Z,24.17
2023-01-19T22:23:38.211Z,21.87
2023-01-19T22:26:05.929Z,20.30
2023-01-19T22:28:32.783Z,22.50
2023-01-19T22:31:08.780Z,19.30
2023-01-19T22:33:36.089Z,21.27
2023-01-19T22:36:19.747Z,21.87
2023-01-19T22:39:00.712Z,23.27
2023-01-19T22:41:30.329Z,23.17
2023-01-19T22:43:59.723Z,22.70
2023-01-19T22:46:29.282Z,22.37
2023-01-19T22:48:56.632Z,22.13
2023-01-19T22:51:25.163Z,23.23
2023-01-19T22:53:52.801Z,23.43
2023-01-19T22:56:25.215Z,22.67
2023-01-19T22:58:52.347Z,24.70
2023-01-19T23:01:31.390Z,22.67
2023-01-19T23:03:58.850Z,24.80
2023-01-19T23:06:28.257Z,23.27
2023-01-19T23:08:56.944Z,23.27
2023-01-19T23:11:26.183Z,22.67
2023-01-19T23:13:53.600Z,24.30
2023-01-19T23:16:21.033Z,25.47
2023-01-19T23:18:48.260Z,23.70
2023-01-19T23:21:17.838Z,24.33
2023-01-19T23:23:45.753Z,25.00
2023-01-19T23:26:13.533Z,24.70
2023-01-19T23:28:40.656Z,25.50
2023-01-19T23:31:22.387Z,23.60
2023-01-19T23:33:54.621Z,24.40
2023-01-19T23:36:23.489Z,25.47
2023-01-19T23:38:52.862Z,26.93
2023-01-19T23:41:20.533Z,23.87
2023-01-19T23:43:47.297Z,28.47
2023-01-19T23:46:14.886Z,26.10
2023-01-19T23:48:41.957Z,27.77
2023-01-19T23:51:15.194Z,28.30
2023-01-19T23:53:42.383Z,23.50
2023-01-19T23:56:13.656Z,26.43
2023-01-19T23:58:41.148Z,30.20
